Time;durP1;ratioP1;P1;durP2;ratioP2;P2;SDS_P1;SDS_P2;PMS_P1;PMS_P2;Temp;Humidity;BMP_temperature;BMP_pressure;BME280_temperature;BME280_humidity;BME280_pressure;Samples;Min_cycle;Max_cycle;Signal;HPM_P1;HPM_P2
2023/11/07 00:00:07;;;;;;;14.57;7.97;;;11.80;99.90;;;11.97;100.00;100378.47;5094858;28;20085;-64
2023/11/07 00:02:37;;;;;;;16.73;7.65;;;11.80;99.90;;;12.11;100.00;100398.53;5112931;28;20047;-63
2023/11/07 00:05:08;;;;;;;19.63;8.25;;;11.90;99.90;;;12.00;100.00;100384.56;5094946;28;20341;-64
2023/11/07 00:07:37;;;;;;;15.05;7.40;;;11.80;99.90;;;11.99;100.00;100382.84;5113150;28;20048;-64
2023/11/07 00:10:07;;;;;;;18.70;8.10;;;11.80;99.90;;;11.95;100.00;100385.56;5112982;28;20446;-64
2023/11/07 00:12:36;;;;;;;10.23;7.03;;;11.70;99.90;;;12.03;100.00;100402.22;5113670;28;20093;-64
2023/11/07 00:15:06;;;;;;;12.55;7.97;;;11.70;99.90;;;12.06;100.00;100397.72;5116744;28;20040;-65
2023/11/07 00:17:34;;;;;;;16.27;7.60;;;11.80;99.90;;;12.01;100.00;100396.94;5116767;28;20047;-64
2023/11/07 00:20:05;;;;;;;13.82;7.63;;;11.70;99.90;;;11.90;100.00;100396.25;5116571;28;20047;-64
2023/11/07 00:22:34;;;;;;;15.60;7.30;;;11.70;99.90;;;11.86;100.00;100401.63;5116711;28;20048;-63
2023/11/07 00:25:04;;;;;;;14.30;7.00;;;11.60;99.90;;;11.85;100.00;100394.56;5116554;28;20040;-64
2023/11/07 00:27:32;;;;;;;14.50;7.17;;;11.60;99.90;;;11.87;100.00;100398.06;5116579;28;20044;-64
2023/11/07 00:30:01;;;;;;;11.88;7.20;;;11.60;99.90;;;11.79;100.00;100396.44;5116756;28;20048;-64
2023/11/07 00:32:29;;;;;;;17.30;7.50;;;11.60;99.90;;;11.82;100.00;100400.81;5116715;28;20480;-64
2023/11/07 00:34:58;;;;;;;15.40;7.63;;;11.60;99.90;;;11.85;100.00;100394.56;5098357;28;20040;-64
2023/11/07 00:37:28;;;;;;;15.25;7.38;;;11.60;99.90;;;11.83;100.00;100409.66;5098575;28;20055;-64
2023/11/07 00:44:59;;;;;;;15.20;6.90;;;11.60;99.90;;;11.91;100.00;100403.31;5436665;22;20031;-65
2023/11/07 00:47:28;;;;;;;14.73;7.72;;;11.60;99.90;;;11.91;100.00;100411.25;5011202;28;20262;-64
2023/11/07 00:49:57;;;;;;;13.82;7.55;;;11.70;99.90;;;11.86;100.00;100405.16;5015743;28;20046;-64
2023/11/07 00:52:25;;;;;;;15.50;7.07;;;11.60;99.90;;;11.93;100.00;100416.50;5015685;28;20060;-64
2023/11/07 00:54:55;;;;;;;13.52;7.00;;;11.70;99.90;;;11.92;100.00;100413.00;5015439;28;20053;-64
2023/11/07 00:57:23;;;;;;;15.83;7.37;;;11.70;99.90;;;11.93;100.00;100419.16;5015432;28;20050;-64
2023/11/07 00:59:51;;;;;;;12.68;6.90;;;11.70;99.90;;;11.99;100.00;100429.66;4997814;28;20805;-64
2023/11/07 01:02:20;;;;;;;14.00;7.35;;;11.70;99.90;;;11.98;100.00;100431.44;5015536;28;20050;-64
2023/11/07 01:04:48;;;;;;;16.05;7.18;;;11.70;99.90;;;11.99;100.00;100429.66;5015592;28;20131;-64
2023/11/07 01:07:17;;;;;;;18.05;7.40;;;11.70;99.90;;;12.03;100.00;100442.84;5015403;28;20081;-64
2023/11/07 01:09:45;;;;;;;15.25;7.28;;;11.70;99.90;;;12.03;100.00;100431.38;5015223;28;20050;-65
2023/11/07 01:12:15;;;;;;;15.48;6.93;;;11.80;99.90;;;12.01;100.00;100446.41;5015311;28;20081;-65
2023/11/07 01:14:44;;;;;;;19.87;7.40;;;11.70;99.90;;;11.98;100.00;100427.94;5014119;28;20149;-65
2023/11/07 01:17:12;;;;;;;17.23;7.05;;;11.80;99.90;;;12.06;100.00;100434.84;5015112;28;20289;-64
2023/11/07 01:19:41;;;;;;;12.00;7.00;;;11.80;99.90;;;11.33;100.00;100312.44;5015052;28;20046;-64
2023/11/07 01:22:09;;;;;;;14.23;6.45;;;11.80;99.90;;;12.11;100.00;100440.06;5015070;28;20046;-64
2023/11/07 01:24:37;;;;;;;12.95;6.22;;;11.90;99.90;;;12.12;100.00;100431.19;5014638;28;20464;-64
2023/11/07 01:27:06;;;;;;;14.70;6.40;;;11.90;99.90;;;12.08;100.00;100430.38;5014929;28;20384;-64
2023/11/07 01:29:36;;;;;;;12.23;6.10;;;11.80;99.90;;;12.12;100.00;100431.19;5014921;28;20050;-64
2023/11/07 01:32:06;;;;;;;12.65;6.10;;;11.90;99.90;;;12.09;100.00;100436.56;5014975;28;20066;-64
2023/11/07 01:34:34;;;;;;;13.73;6.03;;;11.80;99.90;;;12.20;100.00;100427.50;5014985;28;20042;-64
2023/11/07 01:37:02;;;;;;;15.63;6.28;;;11.90;99.90;;;12.24;100.00;100433.63;4997168;28;20145;-64
2023/11/07 01:39:31;;;;;;;16.70;5.90;;;12.00;99.90;;;12.23;100.00;100427.44;5014792;28;20431;-64
2023/11/07 01:41:59;;;;;;;11.95;5.43;;;12.00;99.90;;;12.17;100.00;100430.25;5014835;28;20066;-64
2023/11/07 01:44:29;;;;;;;10.13;5.20;;;11.90;99.90;;;12.20;100.00;100426.63;5014757;28;20053;-65
2023/11/07 01:47:00;;;;;;;16.07;6.00;;;11.90;99.90;;;12.23;100.00;100430.09;5014466;28;20053;-64
2023/11/07 01:49:28;;;;;;;11.68;5.65;;;12.00;99.90;;;11.67;100.00;100337.50;5014466;28;20103;-64
2023/11/07 01:51:58;;;;;;;15.05;5.82;;;12.00;99.90;;;12.32;100.00;100431.72;4997355;28;20117;-64
2023/11/07 01:54:28;;;;;;;9.70;5.50;;;12.00;99.90;;;12.30;100.00;100436.19;5014501;28;20057;-64
2023/11/07 01:56:57;;;;;;;17.90;5.80;;;12.10;99.90;;;12.31;100.00;100428.19;4996947;28;20411;-64
2023/11/07 01:59:26;;;;;;;12.95;6.03;;;12.10;99.90;;;12.26;100.00;100429.19;4996765;28;20053;-64
2023/11/07 02:02:01;;;;;;;12.00;5.95;;;12.00;99.90;;;12.23;100.00;100435.41;4996532;28;20046;-64
2023/11/07 02:04:29;;;;;;;15.85;5.72;;;12.00;99.90;;;12.22;100.00;100440.75;5014630;28;20104;-64
2023/11/07 02:06:58;;;;;;;12.93;5.50;;;12.00;99.90;;;12.25;100.00;100441.56;4997006;28;20136;-63
2023/11/07 02:09:26;;;;;;;17.13;6.35;;;12.00;99.90;;;12.31;100.00;100449.41;4996680;28;20054;-64
2023/11/07 02:11:55;;;;;;;10.77;6.05;;;12.10;99.90;;;12.22;100.00;100438.09;5014043;28;20050;-64
2023/11/07 02:14:32;;;;;;;15.77;6.18;;;12.10;99.90;;;12.28;100.00;100454.78;5014005;28;20041;-64
2023/11/07 02:17:02;;;;;;;16.17;6.30;;;12.10;99.90;;;12.17;100.00;100443.50;5014037;28;20065;-65
2023/11/07 02:19:31;;;;;;;12.98;6.22;;;12.00;99.90;;;12.21;100.00;100452.25;4996466;28;20054;-64
2023/11/07 02:22:01;;;;;;;15.48;6.35;;;12.00;99.90;;;12.26;100.00;100450.38;4996496;28;20052;-65
2023/11/07 02:24:31;;;;;;;11.30;5.95;;;12.00;99.90;;;12.31;100.00;100445.91;5013854;28;20104;-64
2023/11/07 02:27:00;;;;;;;14.25;6.30;;;12.10;99.90;;;12.24;100.00;100441.59;5013882;28;20046;-64
2023/11/07 02:29:28;;;;;;;11.43;5.40;;;12.00;99.90;;;12.26;100.00;100443.31;5013778;28;20050;-64
2023/11/07 02:31:57;;;;;;;12.02;5.95;;;12.10;99.90;;;12.28;100.00;100443.28;4996328;28;20041;-64
2023/11/07 02:34:25;;;;;;;11.25;5.78;;;12.00;99.90;;;11.53;100.00;100316.50;5014028;28;20052;-63
2023/11/07 02:36:54;;;;;;;10.63;5.65;;;12.10;99.90;;;12.25;100.00;100446.00;5013053;28;20124;-63
2023/11/07 02:39:23;;;;;;;12.25;6.20;;;12.00;99.90;;;12.29;100.00;100447.69;5014183;28;20060;-64
2023/11/07 02:41:53;;;;;;;12.00;5.72;;;12.10;99.90;;;12.31;100.00;100449.41;5013768;28;20483;-64
2023/11/07 02:44:22;;;;;;;10.97;5.50;;;12.10;99.90;;;11.61;100.00;100330.47;5013571;28;20137;-64
2023/11/07 02:46:51;;;;;;;9.25;5.45;;;12.00;99.90;;;12.34;100.00;100453.78;5013051;28;20288;-63
2023/11/07 02:49:20;;;;;;;10.98;5.97;;;12.10;99.90;;;12.19;100.00;100438.16;5013653;28;20092;-63
2023/11/07 02:51:49;;;;;;;12.43;5.43;;;12.10;99.90;;;12.38;100.00;100460.78;5013464;28;20042;-64
2023/11/07 02:54:17;;;;;;;11.45;5.80;;;12.10;99.90;;;12.35;100.00;100461.72;4996006;28;20057;-65
2023/11/07 02:56:45;;;;;;;8.18;4.85;;;12.10;99.90;;;12.35;100.00;100451.09;5013595;28;20080;-63
2023/11/07 02:59:15;;;;;;;11.73;5.20;;;12.10;99.90;;;12.33;99.81;100458.19;5013584;28;20037;-64
2023/11/07 03:01:44;;;;;;;7.43;5.25;;;12.10;99.90;;;12.27;99.68;100453.00;5013293;28;20463;-63
2023/11/07 03:04:13;;;;;;;10.00;5.55;;;12.00;99.90;;;11.72;99.70;100367.41;5013245;28;20570;-63
2023/11/07 03:06:41;;;;;;;10.82;5.60;;;12.00;99.90;;;12.16;99.89;100451.44;5013638;28;20050;-64
2023/11/07 03:09:10;;;;;;;9.65;5.30;;;11.90;99.90;;;12.20;99.85;100448.72;5013431;28;20038;-64
2023/11/07 03:11:38;;;;;;;10.98;5.45;;;11.90;99.90;;;12.08;99.53;100448.94;5013518;28;20038;-63
2023/11/07 03:14:07;;;;;;;16.25;6.07;;;11.90;99.90;;;12.09;99.71;100436.56;5013126;28;20042;-64
2023/11/07 03:16:37;;;;;;;10.02;5.25;;;11.80;99.90;;;12.04;99.91;100446.38;4995903;28;20088;-64
2023/11/07 03:19:07;;;;;;;6.85;4.70;;;11.80;99.90;;;12.02;100.00;100440.22;4995530;28;20062;-64
2023/11/07 03:21:36;;;;;;;10.43;4.82;;;11.80;99.90;;;12.07;99.79;100438.38;5013305;28;20369;-64
2023/11/07 03:24:07;;;;;;;10.70;4.97;;;11.80;99.90;;;12.08;99.35;100437.47;5013027;28;20048;-64
2023/11/07 03:26:36;;;;;;;10.32;4.80;;;11.80;99.90;;;12.06;98.88;100447.25;5012103;28;20046;-63
2023/11/07 03:29:04;;;;;;;5.78;4.70;;;11.80;99.90;;;12.06;98.72;100437.47;5013263;28;20050;-63
2023/11/07 03:31:33;;;;;;;7.88;4.75;;;11.80;99.90;;;12.01;98.41;100439.34;5012967;28;20450;-63
2023/11/07 03:34:02;;;;;;;10.23;4.68;;;11.80;99.90;;;11.98;98.39;100449.13;4995228;28;20069;-63
2023/11/07 03:36:31;;;;;;;9.85;4.82;;;11.70;99.90;;;11.99;98.12;100440.28;5013515;28;20435;-64
2023/11/07 03:38:59;;;;;;;7.10;4.40;;;11.70;99.90;;;11.94;98.02;100450.09;5012865;28;20483;-64
2023/11/07 03:41:28;;;;;;;7.65;4.15;;;11.70;99.90;;;11.88;97.73;100442.22;5011622;28;20136;-64
2023/11/07 03:43:57;;;;;;;9.90;4.10;;;11.70;99.90;;;11.91;97.38;100453.66;4995483;28;20108;-63
2023/11/07 03:46:25;;;;;;;9.63;4.18;;;11.70;99.90;;;11.91;97.15;100447.47;4992430;28;20488;-63
2023/11/07 03:48:54;;;;;;;7.22;4.13;;;11.60;99.90;;;11.78;96.99;100454.75;4997387;28;20050;-64
2023/11/07 03:51:24;;;;;;;7.28;4.10;;;11.60;99.90;;;11.74;96.90;100455.69;4997158;28;20078;-64
2023/11/07 03:53:53;;;;;;;4.23;3.40;;;11.50;99.90;;;11.71;96.88;100458.41;4997530;28;20484;-64
2023/11/07 03:56:22;;;;;;;5.67;3.50;;;11.50;99.90;;;11.77;96.46;100460.94;4997122;28;20057;-64
2023/11/07 03:58:51;;;;;;;6.07;3.35;;;11.50;99.90;;;11.64;96.19;100449.66;4996903;28;20050;-64
2023/11/07 04:01:19;;;;;;;6.93;3.42;;;11.50;99.90;;;11.69;96.12;100454.91;4996924;28;20125;-63
2023/11/07 04:03:48;;;;;;;8.05;3.08;;;11.40;99.90;;;11.69;95.94;100462.88;4997230;28;20050;-64
2023/11/07 04:06:16;;;;;;;5.85;3.33;;;11.40;99.90;;;11.63;95.77;100458.47;4996917;28;20093;-63
2023/11/07 04:08:46;;;;;;;5.80;3.13;;;11.40;99.90;;;11.55;95.96;100460.38;4996844;28;20035;-63
2023/11/07 04:11:15;;;;;;;4.00;3.20;;;11.30;99.90;;;11.47;95.86;100464.03;4996805;28;20126;-63
2023/11/07 04:13:43;;;;;;;5.57;3.00;;;11.30;99.90;;;11.39;96.15;100464.16;4996707;28;20293;-64
2023/11/07 04:16:13;;;;;;;5.82;2.70;;;11.20;99.90;;;11.44;95.89;100458.81;4996677;28;20043;-63
2023/11/07 04:18:42;;;;;;;3.92;2.95;;;11.20;99.90;;;11.44;95.77;100467.59;4995651;28;20113;-63
2023/11/07 04:21:11;;;;;;;4.05;2.80;;;11.20;99.90;;;11.38;95.75;100462.38;4996711;28;20050;-63
2023/11/07 04:23:40;;;;;;;3.10;2.80;;;11.20;99.90;;;11.39;95.83;100463.25;4995515;28;20089;-64
2023/11/07 04:26:10;;;;;;;3.65;3.05;;;11.20;99.90;;;11.38;95.92;100459.72;4996728;28;20044;-63
2023/11/07 04:28:39;;;;;;;3.25;2.70;;;11.20;99.90;;;11.43;96.03;100468.50;4996621;28;20042;-64
2023/11/07 04:31:08;;;;;;;4.32;3.05;;;11.20;99.90;;;11.43;96.02;100479.09;4996366;28;20101;-63
2023/11/07 04:33:38;;;;;;;4.60;2.85;;;11.20;99.90;;;11.41;96.06;100474.72;4996694;28;20546;-64
2023/11/07 04:36:09;;;;;;;3.28;2.97;;;11.20;99.90;;;11.45;96.11;100476.41;4996379;28;20042;-63
2023/11/07 04:38:41;;;;;;;3.72;3.38;;;11.20;99.90;;;11.43;96.16;100483.50;4996399;28;20062;-63
2023/11/07 04:41:12;;;;;;;3.05;2.70;;;11.20;99.90;;;11.41;96.16;100485.31;4995216;28;20061;-63
2023/11/07 04:43:43;;;;;;;4.75;3.08;;;11.20;99.90;;;10.87;95.86;100384.59;4996485;28;20053;-63
2023/11/07 04:46:12;;;;;;;5.40;3.03;;;11.20;99.90;;;11.36;96.20;100477.41;5001819;28;20527;-63
2023/11/07 04:48:41;;;;;;;8.85;3.22;;;11.10;99.90;;;11.34;96.40;100476.56;5015962;28;20487;-64
2023/11/07 04:51:11;;;;;;;5.43;3.00;;;11.10;99.90;;;11.28;96.34;100479.31;5015692;28;20416;-63
2023/11/07 04:53:39;;;;;;;3.55;2.80;;;11.10;99.90;;;11.26;96.18;100489.06;5015629;28;20041;-63
2023/11/07 04:56:09;;;;;;;4.20;2.70;;;11.00;99.90;;;11.34;96.13;100488.94;5015559;28;20050;-63
2023/11/07 04:58:39;;;;;;;3.07;2.80;;;11.10;99.90;;;11.09;95.86;100463.69;5015064;28;20042;-63
2023/11/07 05:01:25;;;;;;;3.72;3.30;;;11.00;99.90;;;11.28;95.98;100487.25;5015403;28;20049;-63
2023/11/07 05:03:54;;;;;;;4.47;3.03;;;11.00;99.90;;;10.54;95.72;100339.19;5015941;28;20053;-63
2023/11/07 05:06:25;;;;;;;3.33;3.03;;;11.10;99.90;;;11.34;95.71;100470.41;5015508;28;20427;-63
2023/11/07 05:08:53;;;;;;;4.35;3.17;;;11.10;99.90;;;11.28;96.03;100471.38;4997866;28;20042;-63
2023/11/07 05:11:22;;;;;;;4.53;3.10;;;11.10;99.90;;;11.24;96.41;100468.78;5015327;28;20133;-64
2023/11/07 05:13:52;;;;;;;4.38;3.10;;;11.00;99.90;;;11.32;96.43;100470.44;5015409;28;20157;-64
2023/11/07 05:16:20;;;;;;;3.75;2.75;;;11.10;99.90;;;11.24;96.18;100461.72;5015549;28;20053;-64
2023/11/07 05:18:48;;;;;;;4.18;3.03;;;11.10;99.90;;;11.31;96.37;100473.97;5015190;28;20046;-64
2023/11/07 05:21:16;;;;;;;3.15;2.85;;;11.10;99.90;;;11.25;96.64;100473.16;4997834;28;20038;-63
2023/11/07 05:23:44;;;;;;;6.18;2.97;;;11.10;99.90;;;11.33;96.63;100480.13;5015093;28;20466;-64
2023/11/07 05:26:13;;;;;;;4.72;3.05;;;11.10;99.90;;;11.28;96.77;100481.09;5015042;28;20037;-63
2023/11/07 05:28:43;;;;;;;4.25;3.10;;;11.10;99.90;;;11.22;96.60;100486.47;5015006;28;20108;-63
2023/11/07 05:31:12;;;;;;;3.17;2.90;;;11.00;99.90;;;11.27;96.80;100487.25;5014927;28;20041;-64
2023/11/07 05:33:41;;;;;;;3.23;3.03;;;11.00;99.90;;;11.26;96.80;100474.94;4997579;28;20050;-64
2023/11/07 05:36:11;;;;;;;4.15;2.70;;;11.00;99.90;;;11.29;96.77;100482.81;5014968;28;20041;-64
2023/11/07 05:38:39;;;;;;;3.17;2.90;;;11.00;99.90;;;11.26;96.91;100482.88;5014825;28;20050;-64
2023/11/07 05:41:08;;;;;;;4.63;3.08;;;11.10;99.90;;;11.24;96.92;100490.84;5014667;28;20092;-63
2023/11/07 05:43:40;;;;;;;3.38;3.05;;;11.00;99.90;;;11.30;97.13;100488.13;5015382;28;20049;-65
2023/11/07 05:46:09;;;;;;;3.85;2.85;;;11.10;99.90;;;11.25;97.16;100489.94;5014381;28;20108;-63
2023/11/07 05:48:39;;;;;;;4.45;3.03;;;11.00;99.90;;;11.26;97.54;100482.88;5014708;28;20046;-63
2023/11/07 05:51:08;;;;;;;3.10;2.80;;;11.00;99.90;;;11.09;97.26;100451.31;5014606;28;20510;-64
2023/11/07 05:53:37;;;;;;;4.43;2.92;;;11.00;99.90;;;11.20;97.62;100483.84;5014457;28;20439;-64
2023/11/07 05:56:07;;;;;;;4.80;2.83;;;11.00;99.90;;;11.24;97.36;100484.66;4997108;28;20057;-64
2023/11/07 05:58:37;;;;;;;3.10;2.80;;;11.00;99.90;;;11.20;97.80;100483.84;5014410;28;20442;-63
2023/11/07 06:01:06;;;;;;;4.53;3.03;;;11.00;99.90;;;11.29;97.35;100490.75;5014346;28;20578;-64
2023/11/07 06:03:34;;;;;;;3.28;2.97;;;11.00;99.90;;;11.29;97.07;100488.13;5014550;28;20046;-64
2023/11/07 06:06:08;;;;;;;3.95;2.80;;;11.00;99.90;;;11.38;96.72;100488.88;4996624;28;20057;-63
2023/11/07 06:08:36;;;;;;;5.45;3.50;;;11.10;99.90;;;11.35;96.53;100503.91;5014759;28;20077;-65
2023/11/07 06:11:05;;;;;;;5.95;3.47;;;11.10;99.90;;;11.29;96.46;100488.13;5013380;28;20050;-64
2023/11/07 06:13:34;;;;;;;4.47;3.22;;;11.10;99.90;;;11.30;96.42;100495.19;5014111;28;20154;-63
2023/11/07 06:16:05;;;;;;;5.40;3.45;;;11.10;99.90;;;11.36;96.26;100495.94;5014294;28;20272;-65
2023/11/07 06:18:34;;;;;;;5.25;3.25;;;11.10;99.90;;;11.36;96.08;100497.75;5013960;28;20100;-65
2023/11/07 06:21:04;;;;;;;3.72;2.88;;;11.10;99.90;;;11.34;95.94;100499.53;5013992;28;20049;-64
2023/11/07 06:23:32;;;;;;;4.93;3.42;;;11.10;99.90;;;11.38;95.65;100496.81;5013912;28;20197;-64
2023/11/07 06:26:01;;;;;;;3.85;3.03;;;11.10;99.90;;;11.30;95.52;100498.72;5013924;28;20046;-64
2023/11/07 06:28:29;;;;;;;4.68;3.75;;;11.10;99.90;;;11.30;95.35;100501.34;5013828;28;20049;-64
2023/11/07 06:30:57;;;;;;;4.50;3.22;;;11.10;99.90;;;11.24;95.16;100512.03;5013802;28;20065;-63
2023/11/07 06:33:26;;;;;;;3.50;3.17;;;11.00;99.90;;;11.21;95.24;100508.50;5013749;28;20054;-63
2023/11/07 06:35:56;;;;;;;8.35;3.53;;;11.00;99.90;;;11.19;95.27;100508.53;5013884;28;20042;-62
2023/11/07 06:38:25;;;;;;;5.88;3.42;;;11.00;99.90;;;11.23;95.12;100512.00;5014261;28;20480;-63
2023/11/07 06:40:55;;;;;;;4.50;3.00;;;11.00;99.90;;;11.17;94.60;100512.97;5013634;28;20077;-64
2023/11/07 06:43:25;;;;;;;3.33;3.08;;;10.90;99.90;;;11.09;94.72;100514.84;4996000;28;20048;-65
2023/11/07 06:45:53;;;;;;;3.72;2.97;;;10.90;99.90;;;11.17;94.72;100512.97;5013480;28;20054;-65
2023/11/07 06:48:21;;;;;;;4.40;2.80;;;10.90;99.90;;;11.14;94.49;100520.97;5013494;28;20081;-64
2023/11/07 06:50:51;;;;;;;4.30;3.03;;;10.90;99.90;;;11.18;94.22;100520.03;5013876;28;20072;-64
2023/11/07 06:53:19;;;;;;;3.88;3.00;;;10.90;99.90;;;11.14;94.22;100520.97;5013370;28;20073;-64
2023/11/07 06:55:49;;;;;;;4.82;2.95;;;10.90;99.90;;;11.25;94.08;100524.34;4995865;28;20131;-64
2023/11/07 06:58:17;;;;;;;3.30;3.00;;;11.00;99.90;;;11.20;93.70;100523.53;5013351;28;20052;-64
2023/11/07 07:00:46;;;;;;;4.10;2.95;;;11.00;99.90;;;11.14;93.69;100517.44;5013235;28;20073;-64
2023/11/07 07:03:14;;;;;;;3.95;2.92;;;11.00;99.90;;;11.18;93.91;100530.63;5013078;28;20128;-64
2023/11/07 07:05:42;;;;;;;3.78;3.00;;;11.00;99.90;;;11.22;93.63;100529.69;5013075;28;20181;-64
2023/11/07 07:08:11;;;;;;;4.32;3.10;;;11.00;99.90;;;11.20;93.77;100535.91;5013083;28;20046;-65
2023/11/07 07:10:40;;;;;;;3.60;3.30;;;11.00;99.90;;;11.18;93.62;100538.56;5013376;28;20041;-64
2023/11/07 07:13:09;;;;;;;3.17;2.97;;;11.00;99.90;;;11.29;93.49;100528.72;5013149;28;20049;-64
2023/11/07 07:15:41;;;;;;;4.53;3.08;;;11.10;99.90;;;11.47;93.16;100541.72;5013129;28;20490;-64
2023/11/07 07:18:10;;;;;;;3.88;2.85;;;11.20;99.90;;;11.67;92.68;100538.84;5012932;28;20049;-64
2023/11/07 07:20:38;;;;;;;5.35;3.58;;;11.40;99.90;;;11.76;91.84;100552.81;5012917;28;20046;-64
2023/11/07 07:23:08;;;;;;;5.57;2.90;;;11.50;99.90;;;11.87;91.27;100541.16;5012560;28;20060;-65
2023/11/07 07:25:37;;;;;;;3.53;3.22;;;11.70;99.90;;;12.17;90.64;100553.97;5012917;28;20041;-65
2023/11/07 07:28:07;;;;;;;8.43;3.50;;;11.90;99.90;;;12.32;89.81;100551.06;5012865;28;20046;-64
2023/11/07 07:30:37;;;;;;;6.18;3.60;;;12.00;99.90;;;12.54;89.25;100552.47;5012914;28;20056;-64
2023/11/07 07:33:07;;;;;;;7.75;3.15;;;12.20;99.90;;;12.59;88.86;100542.63;5012602;28;20050;-64
2023/11/07 07:35:37;;;;;;;2.92;2.72;;;12.30;99.90;;;12.76;87.78;100553.81;5012627;28;20149;-64
2023/11/07 07:38:09;;;;;;;3.40;3.10;;;12.50;99.90;;;12.92;87.07;100560.59;5012933;28;20056;-63
2023/11/07 07:40:38;;;;;;;4.60;3.25;;;12.70;99.90;;;13.13;86.38;100560.22;5012653;28;20068;-62
2023/11/07 07:43:10;;;;;;;6.20;3.65;;;12.90;99.90;;;13.13;86.20;100552.25;5012531;28;20038;-62
2023/11/07 07:45:42;;;;;;;5.95;3.30;;;12.90;99.90;;;13.21;86.23;100533.50;4995530;28;20136;-62
2023/11/07 07:48:11;;;;;;;5.13;3.72;;;13.00;99.90;;;13.29;85.51;100545.72;4995385;28;20050;-63
2023/11/07 07:50:41;;;;;;;4.50;3.75;;;13.10;99.90;;;13.32;85.31;100566.91;5012711;28;20053;-62
2023/11/07 07:53:14;;;;;;;7.78;3.55;;;13.10;99.90;;;13.51;85.63;100565.59;5012734;28;20046;-62
2023/11/07 07:55:44;;;;;;;5.32;3.60;;;13.20;99.90;;;13.65;84.94;100577.72;5012902;28;20046;-62
2023/11/07 07:58:18;;;;;;;3.90;3.45;;;13.30;99.90;;;13.65;84.66;100564.41;5012605;28;20422;-62
2023/11/07 08:00:52;;;;;;;6.43;3.50;;;13.40;99.90;;;13.78;83.94;100587.19;5012499;28;20076;-62
2023/11/07 08:03:20;;;;;;;5.28;3.50;;;13.50;99.90;;;13.83;83.08;100570.22;5012589;28;20073;-63
2023/11/07 08:05:51;;;;;;;4.72;3.53;;;13.60;99.90;;;13.94;83.01;100592.13;5012827;28;20490;-62
2023/11/07 08:08:20;;;;;;;5.78;3.92;;;13.60;99.90;;;14.10;82.60;100590.88;5012571;28;20046;-63
2023/11/07 08:10:49;;;;;;;6.57;3.78;;;13.70;99.90;;;14.29;81.55;100589.56;5012526;28;20038;-63
2023/11/07 08:13:18;;;;;;;5.88;3.40;;;14.00;99.90;;;14.53;80.91;100600.50;5012412;28;20046;-63
2023/11/07 08:15:48;;;;;;;6.55;4.07;;;14.20;99.90;;;13.95;80.16;100489.31;5012803;28;20054;-62
2023/11/07 08:18:18;;;;;;;4.47;3.72;;;14.30;99.90;;;14.65;79.17;100600.22;4994692;28;20085;-62
2023/11/07 08:20:47;;;;;;;11.25;3.83;;;14.40;99.90;;;14.44;79.76;100593.63;5012657;28;20057;-62
2023/11/07 08:23:15;;;;;;;7.30;3.85;;;14.20;99.90;;;14.22;80.28;100589.72;5012314;28;20069;-62
2023/11/07 08:25:44;;;;;;;4.57;4.03;;;14.00;99.90;;;14.21;81.06;100598.59;5012328;28;20048;-62
2023/11/07 08:28:12;;;;;;;4.15;3.58;;;13.90;99.90;;;14.37;80.60;100610.66;5012790;28;20486;-62
2023/11/07 08:30:43;;;;;;;4.68;3.40;;;14.00;99.90;;;14.57;80.36;100611.06;5012601;28;20133;-63
2023/11/07 08:33:13;;;;;;;6.38;3.65;;;14.20;99.90;;;14.86;79.52;100613.84;5012592;28;20050;-63
2023/11/07 08:35:43;;;;;;;5.60;3.40;;;14.50;99.90;;;15.01;77.77;100616.13;5016410;28;20077;-63
2023/11/07 08:38:12;;;;;;;6.13;3.78;;;14.80;99.90;;;15.09;77.86;100623.91;5016128;28;20052;-64
2023/11/07 08:40:40;;;;;;;7.28;4.13;;;14.80;99.90;;;15.10;77.60;100630.97;5014495;28;20068;-62
2023/11/07 08:43:09;;;;;;;5.97;3.67;;;14.80;99.90;;;15.27;77.12;100637.59;5015750;28;20046;-63
2023/11/07 08:45:37;;;;;;;6.30;3.50;;;15.00;99.90;;;15.47;76.70;100629.06;5015694;28;20038;-65
2023/11/07 08:48:06;;;;;;;4.97;3.80;;;15.10;99.90;;;15.63;75.78;100637.50;5015605;28;20062;-64
2023/11/07 08:50:37;;;;;;;6.07;3.78;;;15.30;99.90;;;15.39;75.43;100626.59;5015697;28;20057;-64
2023/11/07 08:53:06;;;;;;;7.47;4.25;;;15.20;99.90;;;15.58;75.87;100634.13;5015660;28;20049;-63
2023/11/07 08:55:35;;;;;;;6.82;3.75;;;15.30;99.90;;;15.74;75.30;100630.94;5014462;28;20054;-64
2023/11/07 08:58:05;;;;;;;6.22;3.70;;;15.40;99.90;;;15.86;74.56;100651.06;5015743;28;20038;-64
2023/11/07 09:00:34;;;;;;;8.50;4.22;;;15.60;99.90;;;15.97;74.53;100648.94;5015494;28;20050;-63
2023/11/07 09:03:04;;;;;;;6.80;3.70;;;15.60;99.90;;;16.08;74.17;100658.41;5015469;28;20042;-62
2023/11/07 09:05:32;;;;;;;6.65;3.72;;;15.80;99.90;;;16.13;73.14;100636.88;5015560;28;20042;-63
2023/11/07 09:08:02;;;;;;;9.73;3.75;;;15.90;99.90;;;15.95;73.30;100651.66;5015313;28;20081;-64
2023/11/07 09:10:34;;;;;;;8.10;4.10;;;15.70;99.90;;;16.09;73.32;100651.25;5015555;28;20041;-64
2023/11/07 09:13:03;;;;;;;8.95;3.70;;;15.80;99.90;;;16.26;73.46;100662.25;5015330;28;20041;-63
2023/11/07 09:15:32;;;;;;;4.50;3.55;;;15.90;99.90;;;15.67;72.71;100546.72;4997616;28;20140;-63
2023/11/07 09:18:00;;;;;;;7.53;3.33;;;16.00;99.90;;;16.50;72.71;100666.88;5015120;28;20527;-64
2023/11/07 09:20:29;;;;;;;5.80;4.07;;;16.20;99.90;;;16.57;72.22;100652.41;5015011;28;20549;-64
2023/11/07 09:22:57;;;;;;;8.35;3.72;;;16.30;99.90;;;16.69;71.54;100657.34;4997609;28;20049;-63
2023/11/07 09:25:26;;;;;;;5.47;3.72;;;16.40;99.90;;;16.67;71.48;100659.19;5015290;28;20050;-65
2023/11/07 09:27:56;;;;;;;6.40;3.72;;;16.40;99.90;;;16.67;71.51;100661.00;5014914;28;20188;-64
2023/11/07 09:30:24;;;;;;;4.32;3.50;;;16.40;99.90;;;16.58;71.25;100663.97;4997308;28;20052;-64
2023/11/07 09:32:53;;;;;;;5.47;3.60;;;16.30;99.90;;;16.57;71.25;100652.41;5014758;28;20045;-63
2023/11/07 09:35:23;;;;;;;6.35;4.05;;;16.30;99.90;;;16.60;71.64;100668.34;5014735;28;20526;-63
2023/11/07 09:37:52;;;;;;;5.10;3.65;;;16.30;99.90;;;16.55;71.32;100677.44;5014654;28;20072;-64
2023/11/07 09:40:22;;;;;;;8.25;3.75;;;16.30;99.90;;;16.68;71.28;100677.00;5014818;28;20069;-63
2023/11/07 09:42:55;;;;;;;8.00;3.80;;;16.40;99.90;;;16.62;71.08;100679.84;5014684;28;20053;-63
2023/11/07 09:45:24;;;;;;;8.15;3.85;;;16.40;99.90;;;16.43;71.03;100676.00;5014362;28;20058;-64
2023/11/07 09:47:56;;;;;;;7.22;3.80;;;16.20;99.90;;;16.51;71.58;100695.31;5015209;28;20054;-64
2023/11/07 09:50:25;;;;;;;5.93;3.42;;;16.20;99.90;;;16.69;71.17;100677.84;5014667;28;20546;-63
2023/11/07 09:52:54;;;;;;;5.47;3.38;;;16.40;99.90;;;16.76;71.16;100682.94;5014455;28;20494;-64
2023/11/07 09:55:28;;;;;;;5.03;3.43;;;16.50;99.90;;;16.68;70.82;100687.69;5014463;28;20384;-64
2023/11/07 09:58:06;;;;;;;6.38;3.70;;;16.40;99.90;;;16.89;70.68;100681.63;5014676;28;20501;-64
2023/11/07 10:00:45;;;;;;;6.70;3.33;;;16.60;99.90;;;16.78;70.62;100686.44;5014406;28;20056;-64
2023/11/07 10:03:15;;;;;;;7.78;3.60;;;16.50;99.90;;;16.99;71.30;100704.41;5014298;28;20053;-64
2023/11/07 10:05:47;;;;;;;8.00;3.97;;;16.70;99.90;;;16.93;70.02;100688.63;5014149;28;20042;-63
2023/11/07 10:08:17;;;;;;;8.63;3.83;;;16.70;99.90;;;16.83;70.09;100695.19;5014268;28;20056;-64
2023/11/07 10:11:08;;;;;;;8.23;4.13;;;16.60;99.90;;;17.05;69.60;100698.88;4996807;28;20152;-64
2023/11/07 10:13:39;;;;;;;7.57;3.97;;;16.70;99.90;;;16.93;70.05;100704.66;5014125;28;20050;-63
2023/11/07 10:16:09;;;;;;;10.57;4.35;;;16.70;99.90;;;17.02;69.80;100700.78;5013976;28;20057;-63
2023/11/07 10:18:48;;;;;;;7.70;3.65;;;16.80;99.90;;;17.04;69.42;100701.59;5014094;28;20400;-64
2023/11/07 10:21:31;;;;;;;13.40;4.07;;;16.80;99.90;;;16.83;69.27;100696.97;5014251;28;20058;-63